Time;durP1;ratioP1;P1;durP2;ratioP2;P2;SDS_P1;SDS_P2;PMS_P1;PMS_P2;Temp;Humidity;BMP_temperature;BMP_pressure;BME280_temperature;BME280_humidity;BME280_pressure;Samples;Min_cycle;Max_cycle;Signal;HPM_P1;HPM_P2
2023/09/30 00:01:41;;;;;;;9.77;5.43;;;15.80;99.90;;;;;;5092763;28;20594;-67
2023/09/30 00:04:08;;;;;;;8.13;5.50;;;15.80;99.90;;;;;;5092406;28;20848;-68
2023/09/30 00:06:35;;;;;;;9.65;5.72;;;15.90;99.90;;;;;;5092955;28;20291;-68
2023/09/30 00:09:05;;;;;;;7.78;5.10;;;16.00;99.90;;;;;;5092909;28;20234;-68
2023/09/30 00:11:31;;;;;;;11.40;6.00;;;16.00;99.90;;;;;;5092671;28;20196;-68
2023/09/30 00:13:58;;;;;;;8.70;5.70;;;16.00;99.90;;;;;;5092661;28;20226;-68
2023/09/30 00:16:25;;;;;;;11.98;5.40;;;16.10;99.90;;;;;;5092659;28;20192;-68
2023/09/30 00:18:53;;;;;;;9.02;5.38;;;16.10;99.90;;;;;;5092538;28;20208;-68
2023/09/30 00:21:20;;;;;;;8.93;5.63;;;16.10;99.90;;;;;;5092764;28;20203;-68
2023/09/30 00:23:46;;;;;;;9.35;5.45;;;16.10;99.90;;;;;;5092508;28;20682;-68
2023/09/30 00:26:14;;;;;;;11.32;5.80;;;16.00;99.90;;;;;;5094025;28;20651;-68
2023/09/30 00:28:41;;;;;;;12.77;5.43;;;15.90;99.90;;;;;;5096730;28;20193;-68
2023/09/30 00:31:09;;;;;;;12.77;6.20;;;15.90;99.90;;;;;;5096570;28;20203;-68
2023/09/30 00:33:37;;;;;;;11.43;6.10;;;15.90;99.90;;;;;;5096428;28;20200;-68
2023/09/30 00:36:08;;;;;;;11.82;5.78;;;15.90;99.90;;;;;;5096230;28;20804;-68
2023/09/30 00:38:34;;;;;;;8.85;5.68;;;15.80;99.90;;;;;;5096359;28;20640;-68
2023/09/30 00:41:01;;;;;;;10.15;5.85;;;15.80;99.90;;;;;;5096413;28;20196;-68
2023/09/30 00:43:29;;;;;;;11.10;6.32;;;15.80;99.90;;;;;;5096339;28;20212;-68
2023/09/30 00:46:05;;;;;;;11.52;6.18;;;15.80;99.90;;;;;;5096038;28;20200;-68
2023/09/30 00:48:33;;;;;;;10.75;6.30;;;15.80;99.90;;;;;;5096475;28;20278;-68
2023/09/30 00:51:00;;;;;;;11.63;6.45;;;15.80;99.90;;;;;;5096303;28;20193;-68
2023/09/30 00:53:27;;;;;;;11.38;5.75;;;15.70;99.90;;;;;;5096070;28;20193;-68
2023/09/30 00:55:54;;;;;;;11.05;6.45;;;15.70;99.90;;;;;;5096162;28;20218;-68
2023/09/30 00:58:21;;;;;;;9.52;6.05;;;15.70;99.90;;;;;;5096052;28;20321;-68
2023/09/30 01:00:49;;;;;;;11.73;6.20;;;15.60;99.90;;;;;;5095937;28;20235;-68
2023/09/30 01:03:16;;;;;;;13.30;6.47;;;15.60;99.90;;;;;;5096054;28;20200;-69
2023/09/30 01:05:43;;;;;;;11.32;6.35;;;15.50;99.90;;;;;;5095919;28;20439;-69
2023/09/30 01:08:10;;;;;;;10.30;5.78;;;15.50;99.90;;;;;;5095937;28;20291;-68
2023/09/30 01:10:37;;;;;;;14.20;5.90;;;15.50;99.90;;;;;;5095848;28;20200;-68
2023/09/30 01:13:04;;;;;;;10.32;6.00;;;15.50;99.90;;;;;;5095797;28;20259;-69
2023/09/30 01:15:30;;;;;;;11.50;6.27;;;15.50;99.90;;;;;;5095899;28;20196;-69
2023/09/30 01:17:58;;;;;;;10.40;6.47;;;15.50;99.90;;;;;;5095788;28;20200;-68
2023/09/30 01:20:26;;;;;;;12.13;6.57;;;15.50;99.90;;;;;;5095780;28;20287;-69
2023/09/30 01:22:55;;;;;;;11.48;6.78;;;15.50;99.90;;;;;;5095698;28;20197;-68
2023/09/30 01:25:22;;;;;;;8.55;6.05;;;15.40;99.90;;;;;;5095330;28;20270;-69
2023/09/30 01:27:51;;;;;;;10.05;5.78;;;15.50;99.90;;;;;;5096080;28;20239;-69
2023/09/30 01:30:17;;;;;;;12.27;6.45;;;15.50;99.90;;;;;;5095640;28;20299;-68
2023/09/30 01:32:44;;;;;;;12.88;6.13;;;15.50;99.90;;;;;;5095604;28;20227;-68
2023/09/30 01:35:11;;;;;;;12.47;6.73;;;15.60;99.90;;;;;;5095310;28;20610;-69
2023/09/30 01:37:37;;;;;;;9.32;5.93;;;15.60;99.90;;;;;;5094396;28;20197;-68
2023/09/30 01:40:10;;;;;;;9.03;5.23;;;15.70;99.90;;;;;;5095157;28;20593;-69
2023/09/30 01:42:37;;;;;;;10.30;5.85;;;15.70;99.90;;;;;;5095425;28;20196;-69
2023/09/30 01:45:05;;;;;;;13.10;6.25;;;15.70;99.90;;;;;;5095244;28;20240;-68
2023/09/30 01:47:31;;;;;;;10.82;6.25;;;15.70;99.90;;;;;;5095278;28;20231;-68
2023/09/30 01:49:59;;;;;;;9.88;5.60;;;15.80;99.90;;;;;;5095152;28;20204;-69
2023/09/30 01:52:25;;;;;;;13.90;6.40;;;15.80;99.90;;;;;;5094902;28;20656;-69
2023/09/30 01:54:53;;;;;;;10.07;5.72;;;15.80;99.90;;;;;;5094954;28;20325;-69
2023/09/30 01:57:21;;;;;;;9.95;6.47;;;15.90;99.90;;;;;;5095117;28;20224;-69
2023/09/30 01:59:49;;;;;;;9.65;6.90;;;15.90;99.90;;;;;;5095557;28;20192;-69
2023/09/30 02:02:17;;;;;;;12.65;7.53;;;15.70;99.90;;;;;;5097097;28;20203;-69
2023/09/30 02:04:44;;;;;;;10.83;6.27;;;15.70;99.90;;;;;;5096671;28;20266;-69
2023/09/30 02:07:10;;;;;;;10.43;6.17;;;15.60;99.90;;;;;;5094796;28;20253;-69
2023/09/30 02:09:37;;;;;;;9.20;5.13;;;15.50;99.90;;;;;;5094850;28;20200;-69
2023/09/30 02:12:04;;;;;;;7.37;4.83;;;15.50;99.90;;;;;;5094503;28;20285;-69
2023/09/30 02:14:33;;;;;;;5.80;4.22;;;15.50;99.90;;;;;;5094485;28;20655;-69
2023/09/30 02:16:59;;;;;;;5.37;4.03;;;15.50;99.90;;;;;;5094697;28;20207;-68
2023/09/30 02:19:27;;;;;;;4.83;3.50;;;15.40;99.90;;;;;;5094518;28;20234;-69
2023/09/30 02:21:56;;;;;;;4.13;3.67;;;15.40;99.90;;;;;;5094055;28;20196;-70
2023/09/30 02:24:23;;;;;;;6.70;3.90;;;15.30;99.90;;;;;;5094512;28;20216;-69
2023/09/30 02:26:49;;;;;;;5.17;3.70;;;15.40;99.90;;;;;;5094527;28;20273;-69
2023/09/30 02:29:16;;;;;;;3.43;3.13;;;15.40;99.90;;;;;;5094390;28;20234;-69
2023/09/30 02:31:44;;;;;;;3.97;2.50;;;15.30;99.90;;;;;;5094194;28;20712;-69
2023/09/30 02:34:11;;;;;;;3.20;2.30;;;15.10;99.90;;;;;;5094149;28;20197;-67
2023/09/30 02:36:39;;;;;;;3.87;2.33;;;15.00;99.90;;;;;;5093995;28;20232;-68
2023/09/30 02:39:06;;;;;;;2.00;1.80;;;14.90;99.90;;;;;;5094184;28;20200;-67
2023/09/30 02:41:34;;;;;;;2.73;2.00;;;14.70;99.90;;;;;;5094145;28;20251;-68
2023/09/30 02:44:01;;;;;;;4.10;2.20;;;14.60;99.90;;;;;;5094057;28;20197;-68
2023/09/30 02:46:28;;;;;;;3.03;2.20;;;14.50;99.90;;;;;;5093714;28;20686;-69
2023/09/30 02:48:56;;;;;;;3.30;2.73;;;14.40;99.90;;;;;;5093756;28;20195;-69
2023/09/30 02:51:22;;;;;;;3.10;2.53;;;14.40;99.90;;;;;;5094014;28;20196;-70
2023/09/30 02:53:49;;;;;;;3.53;2.50;;;14.20;99.90;;;;;;5093786;28;20644;-70
2023/09/30 02:56:16;;;;;;;3.77;2.30;;;14.10;99.90;;;;;;5093769;28;20257;-69
2023/09/30 02:58:42;;;;;;;4.10;2.50;;;14.10;99.90;;;;;;5093863;28;20270;-69
2023/09/30 03:01:10;;;;;;;3.40;2.77;;;14.10;99.90;;;;;;5093707;28;20333;-69
2023/09/30 03:03:36;;;;;;;3.70;3.07;;;14.10;99.90;;;;;;5093674;28;20287;-69
2023/09/30 03:06:05;;;;;;;4.77;3.20;;;14.10;99.90;;;;;;5093827;28;20220;-69
2023/09/30 03:08:32;;;;;;;8.37;3.80;;;14.00;99.90;;;;;;5093788;28;20192;-69
2023/09/30 03:10:59;;;;;;;6.67;3.87;;;14.00;99.90;;;;;;5093519;28;20200;-69
2023/09/30 03:13:26;;;;;;;6.27;4.00;;;13.90;99.90;;;;;;5093528;28;20204;-69
2023/09/30 03:15:53;;;;;;;9.00;4.67;;;13.80;99.90;;;;;;5093351;28;20651;-69
2023/09/30 03:18:23;;;;;;;10.23;4.30;;;13.80;99.90;;;;;;5093595;28;20196;-69
2023/09/30 03:20:51;;;;;;;5.23;4.40;;;13.70;99.90;;;;;;5093317;28;20204;-69
2023/09/30 03:23:19;;;;;;;9.30;4.87;;;13.70;99.90;;;;;;5092873;28;20200;-69
2023/09/30 03:25:46;;;;;;;7.30;4.47;;;13.60;99.90;;;;;;5093170;28;20694;-69
2023/09/30 03:28:14;;;;;;;7.77;4.60;;;13.60;99.90;;;;;;5093198;28;20249;-69
2023/09/30 03:30:41;;;;;;;9.07;4.27;;;13.60;99.90;;;;;;5093244;28;20238;-69
2023/09/30 03:33:07;;;;;;;6.70;4.30;;;13.60;99.90;;;;;;5093256;28;20200;-70
2023/09/30 03:35:36;;;;;;;6.67;4.47;;;13.60;99.90;;;;;;5093161;28;20224;-70
2023/09/30 03:38:04;;;;;;;7.10;4.70;;;13.60;99.90;;;;;;5093105;28;20206;-70
2023/09/30 03:40:33;;;;;;;6.53;5.07;;;13.60;99.90;;;;;;5093229;28;20192;-70
2023/09/30 03:43:00;;;;;;;7.27;4.97;;;13.60;99.90;;;;;;5093077;28;20264;-70
2023/09/30 03:45:27;;;;;;;7.40;4.87;;;13.60;99.90;;;;;;5093118;28;20747;-70
2023/09/30 03:47:53;;;;;;;7.90;5.60;;;13.60;99.90;;;;;;5093105;28;20196;-70
2023/09/30 03:50:23;;;;;;;7.40;5.07;;;13.60;99.90;;;;;;5093091;28;20609;-70
2023/09/30 03:52:49;;;;;;;8.20;5.70;;;13.60;99.90;;;;;;5092854;28;20196;-70
2023/09/30 03:55:17;;;;;;;9.40;5.87;;;13.60;99.90;;;;;;5092795;28;20261;-70
2023/09/30 03:57:47;;;;;;;9.30;6.27;;;13.60;99.90;;;;;;5092805;28;20212;-70
2023/09/30 04:00:18;;;;;;;10.67;5.83;;;13.60;99.90;;;;;;5092458;28;20685;-70
2023/09/30 04:02:48;;;;;;;10.60;5.90;;;13.60;99.90;;;;;;5092947;28;20239;-70
2023/09/30 04:05:16;;;;;;;10.03;5.97;;;13.50;99.90;;;;;;5092824;28;20305;-70
2023/09/30 04:07:43;;;;;;;8.40;5.23;;;13.50;99.90;;;;;;5092707;28;20697;-70
2023/09/30 04:10:11;;;;;;;9.10;5.30;;;13.40;99.90;;;;;;5092661;28;20258;-70
2023/09/30 04:12:37;;;;;;;9.03;5.60;;;13.40;99.90;;;;;;5092872;28;20292;-71
2023/09/30 04:15:07;;;;;;;5.77;4.40;;;13.40;99.90;;;;;;5092857;28;20193;-71
2023/09/30 04:17:33;;;;;;;7.03;4.53;;;13.30;99.90;;;;;;5092778;28;20197;-71
2023/09/30 04:20:00;;;;;;;7.37;4.73;;;13.20;99.90;;;;;;5092640;28;20196;-71
2023/09/30 04:22:29;;;;;;;10.57;5.57;;;13.10;99.90;;;;;;5092523;28;20200;-71
2023/09/30 04:24:56;;;;;;;6.87;4.57;;;12.90;99.90;;;;;;5092422;28;20674;-71
2023/09/30 04:27:22;;;;;;;8.00;5.13;;;12.80;99.90;;;;;;5092660;28;20261;-72
2023/09/30 04:29:50;;;;;;;7.83;5.17;;;12.70;99.90;;;;;;5092666;28;20203;-72
2023/09/30 04:32:19;;;;;;;8.77;4.27;;;12.70;99.90;;;;;;5092627;28;20228;-72
2023/09/30 04:34:46;;;;;;;9.83;4.87;;;12.70;99.90;;;;;;5092334;28;20200;-72
2023/09/30 04:37:13;;;;;;;7.77;4.87;;;12.60;99.90;;;;;;5092483;28;20219;-72
2023/09/30 04:39:40;;;;;;;9.27;5.80;;;12.50;99.90;;;;;;5092429;28;20732;-73
2023/09/30 04:42:10;;;;;;;8.30;5.37;;;12.60;99.90;;;;;;5092572;28;20208;-73
2023/09/30 04:44:37;;;;;;;9.17;5.00;;;12.50;99.90;;;;;;5092399;28;20731;-73
2023/09/30 04:47:04;;;;;;;8.90;5.50;;;12.60;99.90;;;;;;5092341;28;20314;-72
2023/09/30 04:49:32;;;;;;;10.73;5.30;;;12.60;99.90;;;;;;5092257;28;20197;-73
2023/09/30 04:51:59;;;;;;;8.10;5.20;;;12.60;99.90;;;;;;5092518;28;20196;-72
2023/09/30 04:54:25;;;;;;;10.17;5.67;;;12.60;99.90;;;;;;5092416;28;20196;-72
2023/09/30 04:56:52;;;;;;;11.83;6.23;;;12.60;99.90;;;;;;5092537;28;20201;-72
2023/09/30 04:59:18;;;;;;;8.33;5.80;;;12.70;99.90;;;;;;5092324;28;20230;-72
2023/09/30 05:01:45;;;;;;;14.33;7.00;;;12.80;99.90;;;;;;5092164;28;20249;-72
2023/09/30 05:04:12;;;;;;;9.67;6.50;;;12.80;99.90;;;;;;5092173;28;20299;-72
2023/09/30 05:06:40;;;;;;;11.47;5.73;;;12.80;99.90;;;;;;5092097;28;20236;-72
2023/09/30 05:09:08;;;;;;;11.73;6.13;;;12.80;99.90;;;;;;5092312;28;20201;-72
2023/09/30 05:11:35;;;;;;;13.33;6.77;;;12.80;99.90;;;;;;5092032;28;20204;-72
2023/09/30 05:14:01;;;;;;;9.73;6.13;;;12.70;99.90;;;;;;5094789;28;20207;-71
2023/09/30 05:16:29;;;;;;;13.73;6.33;;;12.70;99.90;;;;;;5095712;28;20192;-71
2023/09/30 05:18:56;;;;;;;13.73;6.30;;;12.60;99.90;;;;;;5095524;28;20291;-71
2023/09/30 05:21:22;;;;;;;11.83;6.90;;;12.70;99.90;;;;;;5095538;28;20593;-71
2023/09/30 05:23:50;;;;;;;11.53;6.67;;;12.80;99.90;;;;;;5095784;28;20197;-71
2023/09/30 05:26:17;;;;;;;10.50;6.97;;;12.90;99.90;;;;;;5095628;28;20629;-71
2023/09/30 05:28:44;;;;;;;11.77;6.40;;;12.90;99.90;;;;;;5095593;28;20287;-71
2023/09/30 05:31:10;;;;;;;10.67;6.90;;;12.80;99.90;;;;;;5095369;28;20192;-71
2023/09/30 05:33:37;;;;;;;13.10;6.80;;;12.90;99.90;;;;;;5095314;28;20196;-71
2023/09/30 05:36:04;;;;;;;8.67;6.27;;;12.80;99.90;;;;;;5095218;28;20251;-71
2023/09/30 05:38:31;;;;;;;11.30;6.83;;;12.90;99.90;;;;;;5095252;28;20655;-70
2023/09/30 05:40:59;;;;;;;10.70;7.10;;;12.90;99.90;;;;;;5095350;28;20645;-71
2023/09/30 05:43:27;;;;;;;10.77;6.50;;;13.00;99.90;;;;;;5095124;28;20201;-71
2023/09/30 05:45:54;;;;;;;9.97;7.10;;;13.00;99.90;;;;;;5095092;28;20224;-70
2023/09/30 05:48:21;;;;;;;7.70;6.30;;;13.00;99.90;;;;;;5095332;28;20236;-71
2023/09/30 05:50:48;;;;;;;13.30;6.63;;;12.90;99.90;;;;;;5095157;28;20204;-70
2023/09/30 05:53:14;;;;;;;12.60;6.20;;;12.90;99.90;;;;;;5095210;28;20287;-71
2023/09/30 05:55:43;;;;;;;13.17;7.20;;;12.90;99.90;;;;;;5094991;28;20299;-71
2023/09/30 05:58:13;;;;;;;11.40;7.03;;;12.90;99.90;;;;;;5094991;28;20196;-71
2023/09/30 06:00:41;;;;;;;11.27;6.93;;;13.00;99.90;;;;;;5094785;28;20204;-71
2023/09/30 06:03:08;;;;;;;10.80;7.13;;;13.00;99.90;;;;;;5095091;28;20204;-71
2023/09/30 06:05:35;;;;;;;11.50;6.70;;;13.20;99.90;;;;;;5094762;28;20238;-71
2023/09/30 06:08:04;;;;;;;10.73;6.50;;;13.20;99.90;;;;;;5094871;28;20204;-71
2023/09/30 06:10:31;;;;;;;10.03;6.37;;;13.40;99.90;;;;;;5094620;28;20200;-71
2023/09/30 06:12:59;;;;;;;9.63;6.10;;;13.40;99.90;;;;;;5094475;28;20254;-71
2023/09/30 06:15:28;;;;;;;8.50;6.40;;;13.50;99.90;;;;;;5094626;28;20200;-70
2023/09/30 06:17:55;;;;;;;8.30;6.10;;;13.50;99.90;;;;;;5094656;28;20253;-70
2023/09/30 06:20:25;;;;;;;11.03;5.77;;;13.50;99.90;;;;;;5094455;28;20203;-72
2023/09/30 06:22:53;;;;;;;10.10;6.27;;;13.50;99.90;;;;;;5094567;28;20200;-70
2023/09/30 06:25:23;;;;;;;9.30;5.97;;;13.50;99.90;;;;;;5093781;28;20219;-71
2023/09/30 06:27:50;;;;;;;7.90;5.97;;;13.50;99.90;;;;;;5094213;28;20558;-71
2023/09/30 06:30:19;;;;;;;9.37;5.87;;;13.50;99.90;;;;;;5094408;28;20575;-71
2023/09/30 06:32:47;;;;;;;8.83;5.53;;;13.60;99.90;;;;;;5094375;28;20200;-71
2023/09/30 06:35:15;;;;;;;9.33;5.40;;;13.60;99.90;;;;;;5094129;28;20254;-71
2023/09/30 06:37:42;;;;;;;10.10;5.33;;;13.70;99.90;;;;;;5094106;28;20604;-71
2023/09/30 06:40:12;;;;;;;10.30;5.87;;;13.70;99.90;;;;;;5094037;28;20632;-70
2023/09/30 06:42:40;;;;;;;11.60;5.53;;;13.70;99.90;;;;;;5093992;28;20204;-70
2023/09/30 06:45:09;;;;;;;9.67;4.77;;;13.70;99.90;;;;;;5095509;28;20279;-71
2023/09/30 06:47:37;;;;;;;7.53;4.70;;;13.80;99.90;;;;;;5096641;28;20282;-71
2023/09/30 06:50:10;;;;;;;9.30;5.20;;;13.80;99.90;;;;;;5095442;28;20250;-71
2023/09/30 06:52:39;;;;;;;9.37;5.37;;;13.80;99.90;;;;;;5093927;28;20204;-71
2023/09/30 06:55:06;;;;;;;8.60;4.80;;;13.90;99.90;;;;;;5094131;28;20196;-71
2023/09/30 06:57:34;;;;;;;7.37;4.53;;;13.90;99.90;;;;;;5093909;28;20227;-71
2023/09/30 07:00:01;;;;;;;8.97;4.93;;;14.00;99.90;;;;;;5093781;28;20205;-71
2023/09/30 07:02:28;;;;;;;8.67;4.87;;;14.00;99.90;;;;;;5093647;28;20197;-71
2023/09/30 07:04:54;;;;;;;10.63;4.80;;;14.00;99.90;;;;;;5093745;28;20654;-71
2023/09/30 07:07:22;;;;;;;9.27;4.60;;;14.00;99.90;;;;;;5093503;28;20227;-72
2023/09/30 07:09:49;;;;;;;5.40;3.80;;;14.10;99.90;;;;;;5093687;28;20204;-71
2023/09/30 07:12:15;;;;;;;7.90;4.20;;;14.20;99.90;;;;;;5093614;28;20257;-71
2023/09/30 07:14:42;;;;;;;6.03;3.77;;;14.40;99.90;;;;;;5093502;28;20196;-71
2023/09/30 07:17:09;;;;;;;10.07;4.77;;;14.40;99.90;;;;;;5093387;28;20249;-71
2023/09/30 07:19:36;;;;;;;6.73;3.83;;;14.50;99.90;;;;;;5093312;28;20200;-72
2023/09/30 07:22:03;;;;;;;6.73;4.03;;;14.60;99.90;;;;;;5093765;28;20589;-72
2023/09/30 07:24:31;;;;;;;6.13;3.90;;;14.70;99.90;;;;;;5093459;28;20203;-72
2023/09/30 07:26:58;;;;;;;7.83;4.10;;;14.80;99.90;;;;;;5093284;28;20277;-72
2023/09/30 07:29:25;;;;;;;8.47;3.97;;;15.00;99.90;;;;;;5093370;28;20250;-72
2023/09/30 07:31:51;;;;;;;6.72;3.58;;;15.00;99.90;;;;;;5093208;28;20249;-72
2023/09/30 07:34:18;;;;;;;5.25;3.58;;;15.00;99.90;;;;;;5092826;28;20548;-72
2023/09/30 07:36:45;;;;;;;6.88;3.67;;;15.00;99.90;;;;;;5092198;28;20250;-72
2023/09/30 07:39:11;;;;;;;7.75;3.65;;;15.10;99.90;;;;;;5093218;28;20201;-74
2023/09/30 07:41:39;;;;;;;9.23;3.22;;;15.00;99.90;;;;;;5093422;28;20257;-72
2023/09/30 07:44:06;;;;;;;7.20;3.42;;;15.00;99.90;;;;;;5093492;28;20257;-72
2023/09/30 07:46:33;;;;;;;6.22;3.60;;;15.00;99.90;;;;;;5092901;28;20702;-72
2023/09/30 07:49:00;;;;;;;5.57;3.53;;;15.10;99.90;;;;;;5092711;28;20207;-72
2023/09/30 07:51:26;;;;;;;7.32;3.58;;;15.10;99.90;;;;;;5093094;28;20200;-72
2023/09/30 07:53:53;;;;;;;5.30;3.30;;;15.20;99.90;;;;;;5093025;28;20192;-73
2023/09/30 07:56:20;;;;;;;7.68;3.25;;;15.10;99.90;;;;;;5092807;28;20200;-73
2023/09/30 07:58:48;;;;;;;10.20;3.13;;;15.10;99.90;;;;;;5093009;28;20203;-74
2023/09/30 08:01:16;;;;;;;7.28;3.92;;;15.20;99.90;;;;;;5092657;28;20192;-73
2023/09/30 08:03:43;;;;;;;7.28;3.47;;;15.30;99.90;;;;;;5093026;28;20238;-71
2023/09/30 08:06:10;;;;;;;4.97;3.50;;;15.30;99.90;;;;;;5092913;28;20231;-74
2023/09/30 08:08:37;;;;;;;5.38;2.78;;;15.20;99.90;;;;;;5092684;28;20192;-72
2023/09/30 08:11:04;;;;;;;4.63;2.65;;;15.30;99.90;;;;;;5092729;28;20192;-74
2023/09/30 08:13:32;;;;;;;5.82;2.63;;;15.40;99.90;;;;;;5092705;28;20721;-72
2023/09/30 08:16:00;;;;;;;4.50;2.88;;;15.70;99.90;;;;;;5092516;28;20199;-74
2023/09/30 08:18:27;;;;;;;4.97;2.80;;;15.80;99.90;;;;;;5092798;28;20196;-72
2023/09/30 08:20:53;;;;;;;4.72;2.90;;;15.80;99.90;;;;;;5092470;28;20708;-71
2023/09/30 08:23:21;;;;;;;5.15;2.90;;;15.80;99.90;;;;;;5092792;28;20196;-71
2023/09/30 08:25:47;;;;;;;5.30;3.10;;;15.80;99.90;;;;;;5092603;28;20279;-70
2023/09/30 08:28:14;;;;;;;5.00;3.05;;;16.00;99.90;;;;;;5092619;28;20615;-70
2023/09/30 08:30:40;;;;;;;5.18;2.80;;;16.10;99.90;;;;;;5092484;28;20200;-72
2023/09/30 08:33:08;;;;;;;6.70;2.80;;;16.10;99.90;;;;;;5092975;28;20230;-71
2023/09/30 08:35:37;;;;;;;5.35;2.70;;;16.20;99.90;;;;;;5092508;28;20262;-74
2023/09/30 08:38:05;;;;;;;5.28;2.53;;;16.20;99.90;;;;;;5092442;28;20720;-74
2023/09/30 08:40:32;;;;;;;4.88;2.85;;;16.30;99.90;;;;;;5092498;28;20200;-72
2023/09/30 08:42:59;;;;;;;7.82;2.92;;;16.50;99.90;;;;;;5091304;28;20246;-72
2023/09/30 08:45:29;;;;;;;6.75;3.10;;;16.40;99.90;;;;;;5091011;28;20203;-71
2023/09/30 08:47:55;;;;;;;5.15;2.92;;;16.60;99.90;;;;;;5094907;28;20228;-70
2023/09/30 08:50:24;;;;;;;5.15;3.10;;;16.80;99.90;;;;;;5095985;28;20278;-69
2023/09/30 08:52:52;;;;;;;6.13;3.20;;;16.90;99.90;;;;;;5095838;28;20197;-69
2023/09/30 08:55:19;;;;;;;6.70;2.78;;;17.10;99.90;;;;;;5095880;28;20235;-70
2023/09/30 08:57:47;;;;;;;5.65;3.03;;;17.10;99.90;;;;;;5095937;28;20250;-70
2023/09/30 09:00:14;;;;;;;6.53;2.90;;;17.00;99.90;;;;;;5096065;28;20508;-71
2023/09/30 09:02:41;;;;;;;5.82;2.95;;;16.90;99.90;;;;;;5096186;28;20269;-70
2023/09/30 09:05:09;;;;;;;4.25;2.53;;;16.70;99.90;;;;;;5096189;28;20196;-70
2023/09/30 09:07:37;;;;;;;3.80;2.58;;;17.00;99.90;;;;;;5095933;28;20220;-69
2023/09/30 09:10:05;;;;;;;4.90;2.72;;;17.10;99.90;;;;;;5095928;28;20197;-69
2023/09/30 09:12:33;;;;;;;5.97;2.92;;;17.50;99.90;;;;;;5095820;28;20196;-69
2023/09/30 09:15:00;;;;;;;3.67;2.67;;;18.00;99.90;;;;;;5095778;28;20748;-70
2023/09/30 09:17:42;;;;;;;7.65;3.10;;;18.20;99.90;;;;;;5095877;28;20192;-69
2023/09/30 09:20:10;;;;;;;4.93;2.78;;;18.20;99.90;;;;;;5095895;28;20290;-69
2023/09/30 09:22:42;;;;;;;5.47;3.08;;;18.00;99.90;;;;;;5095349;28;20785;-69
2023/09/30 09:25:09;;;;;;;5.72;2.80;;;18.20;99.90;;;;;;5095791;28;20204;-69
2023/09/30 09:27:36;;;;;;;7.97;3.53;;;18.50;99.90;;;;;;5095766;28;20314;-69
2023/09/30 09:30:19;;;;;;;7.95;3.70;;;18.20;99.90;;;;;;5095750;28;20267;-69
2023/09/30 09:32:59;;;;;;;5.38;3.33;;;18.30;99.90;;;;;;5095537;28;20275;-70
2023/09/30 09:35:28;;;;;;;5.15;3.38;;;18.70;99.90;;;;;;5095259;28;20583;-70
2023/09/30 09:37:57;;;;;;;7.03;3.92;;;19.10;99.90;;;;;;5095598;28;20199;-70
2023/09/30 09:40:25;;;;;;;5.38;3.30;;;19.20;99.90;;;;;;5095302;28;20756;-69
2023/09/30 09:42:54;;;;;;;5.30;3.88;;;19.20;99.90;;;;;;5095256;28;20204;-70
2023/09/30 09:45:22;;;;;;;6.13;3.85;;;19.50;99.90;;;;;;5095326;28;20253;-70
2023/09/30 09:47:50;;;;;;;4.88;3.33;;;19.50;99.90;;;;;;5095061;28;20240;-70
2023/09/30 09:50:18;;;;;;;6.75;3.90;;;19.60;99.90;;;;;;5095286;28;20200;-70
2023/09/30 09:52:48;;;;;;;6.28;4.22;;;20.20;99.90;;;;;;5095242;28;20192;-70
2023/09/30 09:55:17;;;;;;;7.75;4.07;;;20.10;99.90;;;;;;5095211;28;20207;-70
2023/09/30 09:57:45;;;;;;;4.88;3.42;;;20.30;99.90;;;;;;5094975;28;20286;-70
2023/09/30 10:00:14;;;;;;;6.03;3.97;;;20.90;99.90;;;;;;5094065;28;20222;-69
2023/09/30 10:02:41;;;;;;;7.93;4.18;;;21.40;99.90;;;;;;5095128;28;20199;-70
2023/09/30 10:05:11;;;;;;;5.35;3.70;;;21.00;99.90;;;;;;5095063;28;20196;-70
2023/09/30 10:07:42;;;;;;;6.45;4.25;;;21.00;99.90;;;;;;5094976;28;20223;-70
2023/09/30 10:10:15;;;;;;;7.05;4.03;;;21.30;99.90;;;;;;5095024;28;20215;-70
2023/09/30 10:12:43;;;;;;;6.13;3.80;;;20.90;99.90;;;;;;5094721;28;20197;-70
2023/09/30 10:15:40;;;;;;;5.88;3.80;;;21.20;99.90;;;;;;5094708;28;20204;-72
2023/09/30 10:18:09;;;;;;;6.28;4.25;;;22.10;99.90;;;;;;5094706;28;20197;-69
2023/09/30 10:20:38;;;;;;;6.05;4.18;;;22.50;99.90;;;;;;5094510;28;20192;-70
2023/09/30 10:23:26;;;;;;;8.73;4.07;;;22.80;99.90;;;;;;5078751;28;20289;-70
2023/09/30 10:26:15;;;;;;;7.20;5.00;;;22.40;99.90;;;;;;5066717;28;20208;-68
2023/09/30 10:28:46;;;;;;;8.73;5.18;;;22.00;99.90;;;;;;5063761;28;20743;-68
2023/09/30 10:31:15;;;;;;;7.75;4.75;;;21.90;99.90;;;;;;5053879;28;20201;-69
2023/09/30 10:34:19;;;;;;;7.22;4.43;;;22.30;99.90;;;;;;5053924;28;20255;-69
2023/09/30 10:36:47;;;;;;;8.63;5.22;;;22.40;99.80;;;;;;5072645;28;20316;-69
2023/09/30 10:39:17;;;;;;;6.07;4.53;;;22.20;99.50;;;;;;5087505;28;20670;-69
2023/09/30 10:41:50;;;;;;;8.20;5.32;;;22.70;99.70;;;;;;5093640;28;20207;-69
2023/09/30 10:44:38;;;;;;;8.07;5.25;;;21.80;98.70;;;;;;5093686;28;20200;-69
2023/09/30 10:47:37;;;;;;;9.07;5.50;;;21.60;99.60;;;;;;5093866;28;20223;-69
2023/09/30 10:50:04;;;;;;;9.05;5.43;;;22.10;98.70;;;;;;5093541;28;20283;-69
2023/09/30 10:52:32;;;;;;;7.80;5.05;;;22.30;97.40;;;;;;5093755;28;20201;-69
2023/09/30 10:55:04;;;;;;;9.75;5.68;;;23.50;97.20;;;;;;5093631;28;20192;-68
2023/09/30 10:57:31;;;;;;;7.63;5.28;;;24.10;95.30;;;;;;5093695;28;20237;-69
2023/09/30 11:00:16;;;;;;;8.57;5.47;;;25.00;94.40;;;;;;5093294;28;20196;-68
2023/09/30 11:02:50;;;;;;;7.95;5.30;;;24.40;93.20;;;;;;5094144;28;20283;-68
2023/09/30 11:05:18;;;;;;;9.75;5.25;;;24.40;93.40;;;;;;5074966;28;20196;-70
2023/09/30 11:07:48;;;;;;;8.65;5.50;;;24.10;93.00;;;;;;5073744;28;20680;-69
2023/09/30 11:10:17;;;;;;;8.90;5.22;;;24.50;91.20;;;;;;5073277;28;20556;-69
2023/09/30 11:12:55;;;;;;;7.15;4.70;;;25.20;90.30;;;;;;5075587;28;20204;-70
2023/09/30 11:15:23;;;;;;;10.25;5.43;;;25.20;90.10;;;;;;5093171;28;20544;-69
2023/09/30 11:17:50;;;;;;;9.18;5.53;;;26.60;86.20;;;;;;5092878;28;20226;-69
2023/09/30 11:20:17;;;;;;;7.68;5.97;;;25.70;84.20;;;;;;5073000;28;20193;-69
2023/09/30 11:22:45;;;;;;;8.20;5.40;;;24.60;85.20;;;;;;5072707;28;20193;-69
2023/09/30 11:25:17;;;;;;;8.75;5.35;;;24.80;84.10;;;;;;5092131;28;20614;-69
2023/09/30 11:27:44;;;;;;;8.68;5.68;;;24.30;83.40;;;;;;5091986;28;20310;-70
2023/09/30 11:30:12;;;;;;;6.88;5.22;;;23.70;83.70;;;;;;5093395;28;20246;-69
2023/09/30 11:32:40;;;;;;;8.43;5.60;;;23.50;87.10;;;;;;5093179;28;20567;-69
2023/09/30 11:35:10;;;;;;;8.45;5.22;;;23.50;86.90;;;;;;5093073;28;20255;-68
2023/09/30 11:37:37;;;;;;;9.93;7.38;;;24.70;88.00;;;;;;5093110;28;20196;-68
2023/09/30 11:40:13;;;;;;;9.30;7.00;;;24.10;84.20;;;;;;5091253;28;20192;-69
2023/09/30 11:42:41;;;;;;;8.40;5.90;;;23.60;82.80;;;;;;5072978;28;20201;-71
2023/09/30 11:45:20;;;;;;;8.10;5.93;;;24.60;83.30;;;;;;5072836;28;20201;-71
2023/09/30 11:47:48;;;;;;;8.15;5.50;;;24.40;82.40;;;;;;5072811;28;20300;-70
2023/09/30 11:50:16;;;;;;;10.77;6.10;;;23.90;81.20;;;;;;5072788;28;20274;-69
2023/09/30 11:52:46;;;;;;;8.60;6.22;;;23.80;82.00;;;;;;5072558;28;20564;-70
2023/09/30 11:55:13;;;;;;;7.75;5.82;;;23.10;79.60;;;;;;5072928;28;20242;-70
2023/09/30 11:57:40;;;;;;;8.25;5.90;;;22.50;81.60;;;;;;5072434;28;20932;-70
2023/09/30 12:00:13;;;;;;;8.38;5.57;;;22.50;83.70;;;;;;5072609;28;20270;-69
2023/09/30 12:02:41;;;;;;;7.00;4.95;;;22.50;83.90;;;;;;5072529;28;20201;-78
2023/09/30 12:05:11;;;;;;;9.55;5.65;;;23.60;82.10;;;;;;5072576;28;20716;-69
2023/09/30 12:07:38;;;;;;;8.30;5.82;;;23.10;81.90;;;;;;5072412;28;20225;-69
2023/09/30 12:10:05;;;;;;;7.93;5.65;;;22.50;83.80;;;;;;5072437;28;20193;-69
2023/09/30 12:12:32;;;;;;;8.52;5.35;;;24.40;82.80;;;;;;5078877;28;20188;-69
2023/09/30 12:14:58;;;;;;;7.68;5.28;;;26.50;80.30;;;;;;5092353;28;20261;-70
2023/09/30 12:17:25;;;;;;;5.93;4.88;;;28.00;76.10;;;;;;5092610;28;20249;-69
2023/09/30 12:19:52;;;;;;;7.63;5.32;;;27.90;73.30;;;;;;5092560;28;20249;-69
2023/09/30 12:22:20;;;;;;;7.85;4.90;;;27.20;72.80;;;;;;5094113;28;20290;-69
2023/09/30 12:24:47;;;;;;;10.07;5.63;;;26.10;75.80;;;;;;5096916;28;20196;-70
2023/09/30 12:27:14;;;;;;;8.20;5.05;;;25.00;76.40;;;;;;5096469;28;20193;-69
2023/09/30 12:29:40;;;;;;;5.95;4.70;;;24.30;78.60;;;;;;5096510;28;20200;-70
2023/09/30 12:32:08;;;;;;;8.73;5.78;;;25.30;78.00;;;;;;5096413;28;20203;-70
2023/09/30 12:34:35;;;;;;;7.50;4.88;;;25.60;76.20;;;;;;5096573;28;20196;-71
2023/09/30 12:37:03;;;;;;;9.05;5.05;;;24.40;78.00;;;;;;5096657;28;20250;-70
2023/09/30 12:39:33;;;;;;;8.13;5.95;;;23.00;80.90;;;;;;5096612;28;20566;-70
2023/09/30 12:41:59;;;;;;;11.35;5.90;;;22.40;81.00;;;;;;5096643;28;20241;-70
2023/09/30 12:44:26;;;;;;;7.45;5.55;;;21.40;85.00;;;;;;5096465;28;20196;-70
2023/09/30 12:46:53;;;;;;;9.68;6.10;;;21.00;88.10;;;;;;5096237;28;20193;-71
2023/09/30 12:49:20;;;;;;;8.88;5.63;;;21.40;88.40;;;;;;5096163;28;20762;-70